createdAt,value
2022-12-11T00:00:44.144Z,43.50
2022-12-11T00:03:15.670Z,42.95
2022-12-11T00:05:43.290Z,37.80
2022-12-11T00:08:10.040Z,41.70
2022-12-11T00:10:37.991Z,41.17
2022-12-11T00:13:04.761Z,44.05
2022-12-11T00:15:31.148Z,47.83
2022-12-11T00:17:57.515Z,42.60
2022-12-11T00:20:23.910Z,39.80
2022-12-11T00:22:50.254Z,41.70
2022-12-11T00:25:16.695Z,43.45
2022-12-11T00:27:45.201Z,42.90
2022-12-11T00:30:11.896Z,40.08
2022-12-11T00:32:38.344Z,42.70
2022-12-11T00:35:05.114Z,39.50
2022-12-11T00:37:31.555Z,47.97
2022-12-11T00:39:57.960Z,42.55
2022-12-11T00:42:24.414Z,39.88
2022-12-11T00:44:50.918Z,47.30
2022-12-11T00:47:17.259Z,42.88
2022-12-11T00:49:49.415Z,42.15
2022-12-11T00:52:17.791Z,36.55
2022-12-11T00:54:44.467Z,38.33
2022-12-11T00:57:10.873Z,41.47
2022-12-11T00:59:37.418Z,35.75
2022-12-11T01:02:03.800Z,39.55
2022-12-11T01:04:30.251Z,42.92
2022-12-11T01:06:56.898Z,40.22
2022-12-11T01:09:41.778Z,42.93
2022-12-11T01:12:08.175Z,50.13
2022-12-11T01:14:34.634Z,46.78
2022-12-11T01:17:01.078Z,41.28
2022-12-11T01:19:27.487Z,44.47
2022-12-11T01:21:54.558Z,44.13
2022-12-11T01:24:20.962Z,47.25
2022-12-11T01:26:47.351Z,48.97
2022-12-11T01:29:13.708Z,46.95
2022-12-11T01:31:40.158Z,45.88
2022-12-11T01:34:06.659Z,45.00
2022-12-11T01:36:33.058Z,45.28
2022-12-11T01:38:59.543Z,45.75
2022-12-11T01:41:26.000Z,50.53
2022-12-11T01:44:06.876Z,48.88
2022-12-11T01:46:35.540Z,46.30
2022-12-11T01:49:05.991Z,44.10
2022-12-11T01:51:39.348Z,47.35
2022-12-11T01:54:09.677Z,52.85
2022-12-11T01:56:38.022Z,51.58
2022-12-11T01:59:08.449Z,44.37
2022-12-11T02:01:51.085Z,43.08
2022-12-11T02:04:19.742Z,41.80
2022-12-11T02:06:49.080Z,46.50
2022-12-11T02:09:23.519Z,44.50
2022-12-11T02:12:03.455Z,53.43
2022-12-11T02:14:56.701Z,46.10
2022-12-11T02:17:29.542Z,43.22
2022-12-11T02:20:17.104Z,46.03
2022-12-11T02:22:58.593Z,45.33
2022-12-11T02:25:49.756Z,37.20
2022-12-11T02:28:59.589Z,42.42
2022-12-11T02:31:40.168Z,45.70
2022-12-11T02:34:36.458Z,39.13
2022-12-11T02:37:09.222Z,39.53
2022-12-11T02:39:39.425Z,46.43
2022-12-11T02:42:06.847Z,42.92
2022-12-11T02:44:34.969Z,46.83
2022-12-11T02:47:04.156Z,45.25
2022-12-11T02:49:33.434Z,41.90
2022-12-11T02:52:03.297Z,50.37
2022-12-11T02:54:36.352Z,48.50
2022-12-11T02:57:11.897Z,40.70
2022-12-11T02:59:41.477Z,47.22
2022-12-11T03:02:08.226Z,41.17
2022-12-11T03:04:36.534Z,46.87
2022-12-11T03:07:15.712Z,43.28
2022-12-11T03:09:44.127Z,41.75
2022-12-11T03:12:14.675Z,42.63
2022-12-11T03:14:42.974Z,43.20
2022-12-11T03:17:17.167Z,37.20
2022-12-11T03:19:55.431Z,42.63
2022-12-11T03:22:48.543Z,41.30
2022-12-11T03:25:23.300Z,42.58
2022-12-11T03:27:58.069Z,37.70
2022-12-11T03:30:27.021Z,39.90
2022-12-11T03:32:58.136Z,35.13
2022-12-11T03:35:38.780Z,36.80
2022-12-11T03:38:10.285Z,38.78
2022-12-11T03:40:41.544Z,35.72
2022-12-11T03:43:09.720Z,36.53
2022-12-11T03:45:38.926Z,35.17
2022-12-11T03:48:07.321Z,35.50
2022-12-11T03:50:35.141Z,39.00
2022-12-11T03:53:03.686Z,32.83
2022-12-11T03:55:32.821Z,37.97
2022-12-11T03:57:59.267Z,35.55
2022-12-11T04:00:25.752Z,36.03
2022-12-11T04:03:13.633Z,36.55
2022-12-11T04:05:46.907Z,36.63
2022-12-11T04:08:13.985Z,34.40
2022-12-11T04:10:41.178Z,38.03
2022-12-11T04:13:08.915Z,35.70
2022-12-11T04:15:36.061Z,35.25
2022-12-11T04:18:21.945Z,32.33
2022-12-11T04:21:06.639Z,32.30
2022-12-11T04:23:51.617Z,28.33
2022-12-11T04:26:20.462Z,30.52
2022-12-11T04:28:47.993Z,34.00
2022-12-11T04:31:17.430Z,31.77
2022-12-11T04:33:44.282Z,28.60
2022-12-11T04:36:12.077Z,26.23
2022-12-11T04:38:38.726Z,27.88
2022-12-11T04:41:09.816Z,26.40
2022-12-11T04:43:36.446Z,26.80
2022-12-11T04:46:07.270Z,26.00
2022-12-11T04:48:34.381Z,31.40
2022-12-11T04:51:00.768Z,27.77
2022-12-11T04:53:28.197Z,27.73
2022-12-11T04:55:55.230Z,28.38
2022-12-11T04:58:22.810Z,26.63
2022-12-11T05:00:49.623Z,25.60
2022-12-11T05:03:16.129Z,23.75
2022-12-11T05:05:51.289Z,22.75
2022-12-11T05:08:21.409Z,26.23
2022-12-11T05:11:02.788Z,26.00
2022-12-11T05:13:30.175Z,27.33
2022-12-11T05:15:57.282Z,24.58
2022-12-11T05:18:24.678Z,21.73
2022-12-11T05:21:01.786Z,24.20
2022-12-11T05:23:29.321Z,21.77
2022-12-11T05:25:57.916Z,23.55
2022-12-11T05:28:25.545Z,23.13
2022-12-11T05:30:56.748Z,23.60
2022-12-11T05:33:23.873Z,25.90
2022-12-11T05:35:50.272Z,22.87
2022-12-11T05:38:16.727Z,21.27
2022-12-11T05:40:43.231Z,22.55
2022-12-11T05:43:09.586Z,22.92
2022-12-11T05:45:36.671Z,19.02
2022-12-11T05:48:03.125Z,24.17
2022-12-11T05:50:29.629Z,21.23
2022-12-11T05:52:55.992Z,24.45
2022-12-11T05:55:22.435Z,23.65
2022-12-11T05:57:49.043Z,25.00
2022-12-11T06:00:15.502Z,24.83
2022-12-11T06:02:42.046Z,26.75
2022-12-11T06:05:08.977Z,25.58
2022-12-11T06:07:35.761Z,21.73
2022-12-11T06:10:02.193Z,24.50
2022-12-11T06:12:29.815Z,21.60
2022-12-11T06:14:56.499Z,22.30
2022-12-11T06:17:22.850Z,21.67
2022-12-11T06:19:49.302Z,22.65
2022-12-11T06:22:15.638Z,26.33
2022-12-11T06:24:42.011Z,22.53
2022-12-11T06:27:09.099Z,24.35
2022-12-11T06:29:35.695Z,22.73
2022-12-11T06:32:02.164Z,22.67
2022-12-11T06:34:28.791Z,26.33
2022-12-11T06:36:55.243Z,27.67
2022-12-11T06:39:21.574Z,26.40
2022-12-11T06:41:48.293Z,25.77
2022-12-11T06:44:14.641Z,26.02
2022-12-11T06:46:41.025Z,26.95
2022-12-11T06:49:07.377Z,24.30
2022-12-11T06:51:33.822Z,26.17
2022-12-11T06:54:00.180Z,26.23
2022-12-11T06:56:26.564Z,26.15
2022-12-11T06:58:53.076Z,28.85
2022-12-11T07:01:27.399Z,31.07
2022-12-11T07:03:54.982Z,26.10
2022-12-11T07:06:21.865Z,25.42
2022-12-11T07:08:48.259Z,27.23
2022-12-11T07:11:16.167Z,32.28
2022-12-11T07:13:42.716Z,27.80
2022-12-11T07:16:11.301Z,31.50
2022-12-11T07:18:42.327Z,30.50
2022-12-11T07:21:11.268Z,30.88
2022-12-11T07:23:37.959Z,34.60
2022-12-11T07:26:11.006Z,33.87
2022-12-11T07:28:38.140Z,29.88
2022-12-11T07:31:09.744Z,32.30
2022-12-11T07:33:36.866Z,27.15
2022-12-11T07:36:05.063Z,28.33
2022-12-11T07:38:31.597Z,32.10
2022-12-11T07:41:02.479Z,27.38
2022-12-11T07:43:28.940Z,30.50
2022-12-11T07:45:55.502Z,29.17
2022-12-11T07:48:21.873Z,28.23
2022-12-11T07:50:48.239Z,25.33
2022-12-11T07:53:14.600Z,23.98
2022-12-11T07:55:40.958Z,23.40
2022-12-11T07:58:07.318Z,26.25
2022-12-11T08:00:33.842Z,23.45
2022-12-11T08:03:00.191Z,26.07
2022-12-11T08:05:26.758Z,26.35
2022-12-11T08:07:53.247Z,27.17
2022-12-11T08:10:19.743Z,25.92
2022-12-11T08:12:46.105Z,25.25
2022-12-11T08:15:12.618Z,30.07
2022-12-11T08:17:40.334Z,26.98
2022-12-11T08:20:08.270Z,29.17
2022-12-11T08:22:34.674Z,24.27
2022-12-11T08:25:01.171Z,29.45
2022-12-11T08:27:27.503Z,33.00
2022-12-11T08:29:53.977Z,30.50
2022-12-11T08:32:20.369Z,30.50
2022-12-11T08:34:46.854Z,29.38
2022-12-11T08:37:13.628Z,31.00
2022-12-11T08:39:40.027Z,28.67
2022-12-11T08:42:07.091Z,27.08
2022-12-11T08:44:33.430Z,28.77
2022-12-11T08:46:59.797Z,28.58
2022-12-11T08:49:29.842Z,26.48
2022-12-11T08:51:59.155Z,27.03
2022-12-11T08:54:25.511Z,24.15
2022-12-11T08:56:57.602Z,20.77
2022-12-11T08:59:25.596Z,21.38
2022-12-11T09:01:52.300Z,23.95
2022-12-11T09:04:19.239Z,24.50
2022-12-11T09:06:45.606Z,20.80
2022-12-11T09:09:12.657Z,20.73
2022-12-11T09:11:39.046Z,22.85
2022-12-11T09:14:07.896Z,24.23
2022-12-11T09:16:37.758Z,23.10
2022-12-11T09:19:04.782Z,23.83
2022-12-11T09:21:31.173Z,24.42
2022-12-11T09:24:00.156Z,22.30
2022-12-11T09:26:27.996Z,22.42
2022-12-11T09:28:54.936Z,21.77
2022-12-11T09:31:29.979Z,24.38
2022-12-11T09:33:59.573Z,20.63
2022-12-11T09:36:26.712Z,24.83
2022-12-11T09:38:53.562Z,24.33
2022-12-11T09:41:22.936Z,24.70
2022-12-11T09:44:03.533Z,22.20
2022-12-11T09:46:34.122Z,25.48
2022-12-11T09:49:02.616Z,23.92
2022-12-11T09:51:50.278Z,23.48
2022-12-11T09:54:16.707Z,24.27
2022-12-11T09:56:52.446Z,26.45
2022-12-11T09:59:34.340Z,22.77
2022-12-11T10:02:29.926Z,23.58
2022-12-11T10:05:17.368Z,24.60
2022-12-11T10:08:20.370Z,24.57
2022-12-11T10:11:10.824Z,22.30
2022-12-11T10:13:49.310Z,23.00
2022-12-11T10:16:44.895Z,25.10
2022-12-11T10:19:18.469Z,21.92
2022-12-11T10:21:45.546Z,25.77
2022-12-11T10:27:33.714Z,23.52
2022-12-11T10:30:21.207Z,21.67
2022-12-11T10:33:14.033Z,23.80
2022-12-11T10:35:55.698Z,20.13
2022-12-11T10:38:32.497Z,21.13
2022-12-11T10:41:02.532Z,21.40
2022-12-11T10:43:42.190Z,19.17
2022-12-11T10:46:26.254Z,22.10
2022-12-11T10:48:55.918Z,21.53
2022-12-11T10:51:25.424Z,23.17
2022-12-11T10:53:53.724Z,18.75
2022-12-11T10:56:28.507Z,20.27
2022-12-11T10:58:56.280Z,24.05
2022-12-11T11:01:25.732Z,22.10
2022-12-11T11:04:14.149Z,17.52
2022-12-11T11:06:40.604Z,19.13
2022-12-11T11:09:29.004Z,19.75
2022-12-11T11:11:55.584Z,18.83
2022-12-11T11:14:23.068Z,19.43
2022-12-11T11:16:51.600Z,17.48
2022-12-11T11:19:26.826Z,19.52
2022-12-11T11:21:56.281Z,19.08
2022-12-11T11:24:45.715Z,19.40
2022-12-11T11:27:28.816Z,19.87
2022-12-11T11:29:58.074Z,22.48
2022-12-11T11:32:32.417Z,20.67
2022-12-11T11:35:14.247Z,17.83
2022-12-11T11:37:46.295Z,15.52
2022-12-11T11:40:30.323Z,17.90
2022-12-11T11:43:29.223Z,18.02
2022-12-11T11:46:04.230Z,19.40
2022-12-11T11:48:40.202Z,16.85
2022-12-11T11:51:23.061Z,18.85
2022-12-11T11:53:55.614Z,19.67
2022-12-11T11:56:26.183Z,17.33
2022-12-11T11:59:17.491Z,16.42
2022-12-11T12:01:43.928Z,16.90
2022-12-11T12:04:11.562Z,19.25
2022-12-11T12:07:19.913Z,22.13
2022-12-11T12:09:59.367Z,20.40
2022-12-11T12:12:33.832Z,17.50
2022-12-11T12:15:14.835Z,17.88
2022-12-11T12:17:55.655Z,19.63
2022-12-11T12:20:44.703Z,18.63
2022-12-11T12:23:37.091Z,19.83
2022-12-11T12:26:26.285Z,16.67
2022-12-11T12:29:20.907Z,18.00
2022-12-11T12:31:59.639Z,16.23
2022-12-11T12:34:44.503Z,20.53
2022-12-11T12:37:45.199Z,18.05
2022-12-11T12:40:32.658Z,16.92
2022-12-11T12:43:23.741Z,18.52
2022-12-11T12:46:14.605Z,16.27
2022-12-11T12:48:41.160Z,18.40
2022-12-11T12:51:09.918Z,20.90
2022-12-11T12:53:37.403Z,19.13
2022-12-11T12:56:05.757Z,18.73
2022-12-11T12:58:35.417Z,15.95
2022-12-11T13:01:14.457Z,20.57
2022-12-11T13:04:02.061Z,20.35
2022-12-11T13:06:38.608Z,19.65
2022-12-11T13:09:37.466Z,19.83
2022-12-11T13:12:13.920Z,19.25
2022-12-11T13:14:40.427Z,25.80
2022-12-11T13:17:22.173Z,18.67
2022-12-11T13:19:51.383Z,18.45
2022-12-11T13:22:23.457Z,20.90
2022-12-11T13:25:01.438Z,20.48
2022-12-11T13:27:40.197Z,21.13
2022-12-11T13:30:20.858Z,24.35
2022-12-11T13:33:18.520Z,19.55
2022-12-11T13:35:45.493Z,22.00
2022-12-11T13:38:22.623Z,21.77
2022-12-11T13:40:54.607Z,21.00
2022-12-11T13:43:28.531Z,22.73
2022-12-11T13:45:58.564Z,21.20
2022-12-11T13:48:27.638Z,22.20
2022-12-11T13:50:55.810Z,21.67
2022-12-11T13:53:22.957Z,24.00
2022-12-11T13:56:19.956Z,25.92
2022-12-11T13:58:47.335Z,26.63
2022-12-11T14:01:46.219Z,21.58
2022-12-11T14:04:19.149Z,20.67
2022-12-11T14:06:45.584Z,23.70
2022-12-11T14:09:18.732Z,26.63
2022-12-11T14:11:50.913Z,27.35
2022-12-11T14:14:57.043Z,24.73
2022-12-11T14:17:29.111Z,23.65
2022-12-11T14:19:59.355Z,25.13
2022-12-11T14:22:28.650Z,25.58
2022-12-11T14:24:58.699Z,25.45
2022-12-11T14:27:26.541Z,28.52
2022-12-11T14:29:53.591Z,26.38
2022-12-11T14:32:31.058Z,26.57
2022-12-11T14:34:58.727Z,27.98
2022-12-11T14:37:26.393Z,25.00
2022-12-11T14:40:03.031Z,26.92
2022-12-11T14:42:59.830Z,25.77
2022-12-11T14:45:34.677Z,28.73
2022-12-11T14:48:03.789Z,22.88
2022-12-11T14:50:43.724Z,27.73
2022-12-11T14:53:15.471Z,23.63
2022-12-11T14:55:42.329Z,23.08
2022-12-11T14:58:27.570Z,23.07
2022-12-11T15:01:20.546Z,25.15
2022-12-11T15:03:47.407Z,23.83
2022-12-11T15:06:25.963Z,22.45
2022-12-11T15:08:53.999Z,27.98
2022-12-11T15:11:21.845Z,23.90
2022-12-11T15:13:58.267Z,27.60
2022-12-11T15:16:28.011Z,27.95
2022-12-11T15:18:55.671Z,25.80
2022-12-11T15:21:34.211Z,27.40
2022-12-11T15:24:04.013Z,25.50
2022-12-11T15:26:39.788Z,27.58
2022-12-11T15:29:32.832Z,27.48
2022-12-11T15:32:08.462Z,27.67
2022-12-11T15:34:42.100Z,30.95
2022-12-11T15:37:22.565Z,25.57
2022-12-11T15:39:49.444Z,27.38
2022-12-11T15:42:23.192Z,25.65
2022-12-11T15:44:49.644Z,24.65
2022-12-11T15:47:21.331Z,27.60
2022-12-11T15:49:47.687Z,26.87
2022-12-11T15:52:14.066Z,25.25
2022-12-11T15:54:40.405Z,27.27
2022-12-11T15:57:12.078Z,27.00
2022-12-11T15:59:38.726Z,24.65
2022-12-11T16:02:12.099Z,24.93
2022-12-11T16:04:39.668Z,29.65
2022-12-11T16:07:12.567Z,26.25
2022-12-11T16:09:38.924Z,25.17
2022-12-11T16:12:05.522Z,26.75
2022-12-11T16:14:31.878Z,22.97
2022-12-11T16:16:58.206Z,26.98
2022-12-11T16:19:24.587Z,25.13
2022-12-11T16:21:52.351Z,25.77
2022-12-11T16:24:18.814Z,22.35
2022-12-11T16:26:45.165Z,25.73
2022-12-11T16:29:11.754Z,22.85
2022-12-11T16:31:38.124Z,26.05
2022-12-11T16:34:04.466Z,29.15
2022-12-11T16:36:30.931Z,25.92
2022-12-11T16:38:57.311Z,23.30
2022-12-11T16:41:23.783Z,28.77
2022-12-11T16:43:50.570Z,28.80
2022-12-11T16:46:24.160Z,22.80
2022-12-11T16:48:50.572Z,22.65
2022-12-11T16:51:17.095Z,25.37
2022-12-11T16:53:43.474Z,18.98
2022-12-11T16:56:09.926Z,23.88
2022-12-11T16:58:36.323Z,26.50
2022-12-11T17:01:11.993Z,24.92
2022-12-11T17:03:38.959Z,21.50
2022-12-11T17:06:10.229Z,23.50
2022-12-11T17:08:37.272Z,20.95
2022-12-11T17:11:07.523Z,22.50
2022-12-11T17:13:36.161Z,21.92
2022-12-11T17:16:10.897Z,22.37
2022-12-11T17:18:37.634Z,23.35
2022-12-11T17:21:09.313Z,22.35
2022-12-11T17:23:35.955Z,19.08
2022-12-11T17:26:02.798Z,24.90
2022-12-11T17:28:30.024Z,24.47
2022-12-11T17:30:56.562Z,20.80
2022-12-11T17:33:22.997Z,22.75
2022-12-11T17:35:49.358Z,23.95
2022-12-11T17:38:15.858Z,21.33
2022-12-11T17:40:43.621Z,21.77
2022-12-11T17:43:11.673Z,22.13
2022-12-11T17:45:42.784Z,25.65
2022-12-11T17:48:09.358Z,22.17
2022-12-11T17:50:40.114Z,21.88
2022-12-11T17:53:06.731Z,21.90
2022-12-11T17:55:33.676Z,20.17
2022-12-11T17:58:00.547Z,20.02
2022-12-11T18:00:31.637Z,20.05
2022-12-11T18:02:59.676Z,18.27
2022-12-11T18:05:26.221Z,21.20
2022-12-11T18:07:57.909Z,21.27
2022-12-11T18:10:24.749Z,29.13
2022-12-11T18:12:51.343Z,21.63
2022-12-11T18:15:20.652Z,22.13
2022-12-11T18:17:47.211Z,22.13
2022-12-11T18:20:15.782Z,21.35
2022-12-11T18:22:42.438Z,20.08
2022-12-11T18:25:11.144Z,26.88
2022-12-11T18:27:38.563Z,22.80
2022-12-11T18:30:05.425Z,21.37
2022-12-11T18:32:31.948Z,19.65
2022-12-11T18:34:58.323Z,22.60
2022-12-11T18:37:27.941Z,25.70
2022-12-11T18:39:54.690Z,21.55
2022-12-11T18:42:36.443Z,22.47
2022-12-11T18:45:04.055Z,21.13
2022-12-11T18:47:30.790Z,22.35
2022-12-11T18:49:57.876Z,20.85
2022-12-11T18:52:26.492Z,19.13
2022-12-11T18:54:52.848Z,18.60
2022-12-11T18:57:19.306Z,18.15
2022-12-11T18:59:45.644Z,23.15
2022-12-11T19:02:12.525Z,20.80
2022-12-11T19:04:38.938Z,19.23
2022-12-11T19:07:05.495Z,19.80
2022-12-11T19:09:37.757Z,24.00
2022-12-11T19:12:05.109Z,18.35
2022-12-11T19:14:31.855Z,17.33
2022-12-11T19:16:58.286Z,16.60
2022-12-11T19:19:24.749Z,17.87
2022-12-11T19:21:51.163Z,16.92
2022-12-11T19:24:20.736Z,17.10
2022-12-11T19:26:47.723Z,16.20
2022-12-11T19:29:26.538Z,16.23
2022-12-11T19:31:53.931Z,19.30
2022-12-11T19:34:20.753Z,16.25
2022-12-11T19:36:47.308Z,16.70
2022-12-11T19:39:16.543Z,19.42
2022-12-11T19:41:43.403Z,17.88
2022-12-11T19:44:10.552Z,16.23
2022-12-11T19:46:37.458Z,16.05
2022-12-11T19:49:04.602Z,18.65
2022-12-11T19:51:39.099Z,15.25
2022-12-11T19:54:07.346Z,20.13
2022-12-11T19:56:34.996Z,15.93
2022-12-11T19:59:02.860Z,19.25
2022-12-11T20:01:31.095Z,17.60
2022-12-11T20:03:59.739Z,19.17
2022-12-11T20:06:31.312Z,17.58
2022-12-11T20:08:58.455Z,16.87
2022-12-11T20:11:25.199Z,17.73
2022-12-11T20:13:51.687Z,18.30
2022-12-11T20:16:28.819Z,17.10
2022-12-11T20:19:06.166Z,18.10
2022-12-11T20:21:32.617Z,20.93
2022-12-11T20:23:59.408Z,18.13
2022-12-11T20:26:25.780Z,17.40
2022-12-11T20:28:53.276Z,18.70
2022-12-11T20:31:23.252Z,18.15
2022-12-11T20:33:51.328Z,18.40
2022-12-11T20:36:19.467Z,17.98
2022-12-11T20:38:46.034Z,18.63
2022-12-11T20:41:15.251Z,19.40
2022-12-11T20:43:41.955Z,17.95
2022-12-11T20:46:10.412Z,19.77
2022-12-11T20:48:38.790Z,16.67
2022-12-11T20:51:07.360Z,18.27
2022-12-11T20:53:35.132Z,18.70
2022-12-11T20:56:01.978Z,21.95
2022-12-11T20:58:28.370Z,18.83
2022-12-11T21:00:55.009Z,19.40
2022-12-11T21:03:21.517Z,19.42
2022-12-11T21:05:47.890Z,20.98
2022-12-11T21:08:14.265Z,18.75
2022-12-11T21:10:42.028Z,19.83
2022-12-11T21:13:08.804Z,14.95
2022-12-11T21:15:36.707Z,17.58
2022-12-11T21:18:03.196Z,18.83
2022-12-11T21:20:29.540Z,20.27
2022-12-11T21:22:57.531Z,18.73
2022-12-11T21:25:24.767Z,18.73
2022-12-11T21:27:51.829Z,18.08
2022-12-11T21:30:19.126Z,18.30
2022-12-11T21:32:45.712Z,19.75
2022-12-11T21:35:12.916Z,17.77
2022-12-11T21:37:41.770Z,19.88
2022-12-11T21:40:09.258Z,15.68
2022-12-11T21:42:35.680Z,19.98
2022-12-11T21:47:49.693Z,19.80
2022-12-11T21:50:16.249Z,18.15
2022-12-11T21:52:42.810Z,19.63
2022-12-11T21:55:12.126Z,20.42
2022-12-11T21:57:38.655Z,17.20
2022-12-11T22:00:06.011Z,18.13
2022-12-11T22:02:34.996Z,20.10
2022-12-11T22:05:05.978Z,19.42
2022-12-11T22:07:32.328Z,21.45
2022-12-11T22:09:58.679Z,18.23
2022-12-11T22:12:27.747Z,19.43
2022-12-11T22:14:54.712Z,16.90
2022-12-11T22:17:21.227Z,17.65
2022-12-11T22:19:47.780Z,18.95
2022-12-11T22:22:14.834Z,16.73
2022-12-11T22:24:41.211Z,20.53
2022-12-11T22:27:07.663Z,20.77
2022-12-11T22:29:34.870Z,21.17
2022-12-11T22:32:01.690Z,23.25
2022-12-11T22:34:28.054Z,22.83
2022-12-11T22:36:54.531Z,18.60
2022-12-11T22:39:20.966Z,19.52
2022-12-11T22:41:47.350Z,18.08
2022-12-11T22:44:20.053Z,18.42
2022-12-11T22:46:49.927Z,18.35
2022-12-11T22:49:18.143Z,19.53
2022-12-11T22:51:44.527Z,21.60
2022-12-11T22:54:11.356Z,16.83
2022-12-11T22:56:38.568Z,17.65
2022-12-11T22:59:05.020Z,21.42
2022-12-11T23:01:31.405Z,18.67
2022-12-11T23:03:57.835Z,19.33
2022-12-11T23:06:25.070Z,18.88
2022-12-11T23:08:55.038Z,18.45
2022-12-11T23:11:25.914Z,19.00
2022-12-11T23:13:53.770Z,17.60
2022-12-11T23:16:21.289Z,19.15
2022-12-11T23:18:47.938Z,18.30
2022-12-11T23:21:14.502Z,17.45
2022-12-11T23:23:41.063Z,19.13
2022-12-11T23:26:10.587Z,19.27
2022-12-11T23:28:37.550Z,21.38
2022-12-11T23:31:04.513Z,17.60
2022-12-11T23:33:31.006Z,17.05
2022-12-11T23:35:58.372Z,18.35
2022-12-11T23:38:25.042Z,20.93
2022-12-11T23:40:51.686Z,22.52
2022-12-11T23:43:18.226Z,17.02
2022-12-11T23:45:46.008Z,20.45
2022-12-11T23:48:13.380Z,21.55
2022-12-11T23:50:41.683Z,17.63
2022-12-11T23:53:08.377Z,18.63
2022-12-11T23:55:35.142Z,18.80
2022-12-11T23:58:01.607Z,19.17
